sensor_id;sensor_type;location;lat;lon;timestamp;P1;durP1;ratioP1;P2;durP2;ratioP2
16352;SDS011;8286;51.274;9.542;2023-04-01T00:00:27;1.83;;;0.93;;
16352;SDS011;8286;51.274;9.542;2023-04-01T00:02:55;3.50;;;1.27;;
16352;SDS011;8286;51.274;9.542;2023-04-01T00:05:22;3.13;;;1.03;;
16352;SDS011;8286;51.274;9.542;2023-04-01T00:07:50;3.13;;;1.63;;
16352;SDS011;8286;51.274;9.542;2023-04-01T00:10:17;6.43;;;1.37;;
16352;SDS011;8286;51.274;9.542;2023-04-01T00:12:43;2.67;;;1.30;;
16352;SDS011;8286;51.274;9.542;2023-04-01T00:15:10;0.90;;;0.90;;
16352;SDS011;8286;51.274;9.542;2023-04-01T00:17:37;4.37;;;1.30;;
16352;SDS011;8286;51.274;9.542;2023-04-01T00:20:06;4.17;;;1.70;;
16352;SDS011;8286;51.274;9.542;2023-04-01T00:22:34;3.83;;;1.07;;
16352;SDS011;8286;51.274;9.542;2023-04-01T00:25:01;3.67;;;1.23;;
16352;SDS011;8286;51.274;9.542;2023-04-01T00:27:28;3.43;;;1.50;;
16352;SDS011;8286;51.274;9.542;2023-04-01T00:29:54;3.47;;;1.53;;
16352;SDS011;8286;51.274;9.542;2023-04-01T00:32:21;7.17;;;1.47;;
16352;SDS011;8286;51.274;9.542;2023-04-01T00:34:49;2.60;;;1.20;;
16352;SDS011;8286;51.274;9.542;2023-04-01T00:37:18;4.07;;;1.57;;
16352;SDS011;8286;51.274;9.542;2023-04-01T00:39:44;4.23;;;1.50;;
16352;SDS011;8286;51.274;9.542;2023-04-01T00:42:11;2.23;;;1.20;;
16352;SDS011;8286;51.274;9.542;2023-04-01T00:44:38;3.97;;;1.20;;
16352;SDS011;8286;51.274;9.542;2023-04-01T00:47:06;2.43;;;1.20;;
16352;SDS011;8286;51.274;9.542;2023-04-01T00:49:33;5.83;;;1.43;;
16352;SDS011;8286;51.274;9.542;2023-04-01T00:52:02;6.90;;;1.67;;
16352;SDS011;8286;51.274;9.542;2023-04-01T00:54:32;3.77;;;1.43;;
16352;SDS011;8286;51.274;9.542;2023-04-01T00:56:59;3.43;;;1.60;;
16352;SDS011;8286;51.274;9.542;2023-04-01T00:59:27;2.67;;;1.63;;
16352;SDS011;8286;51.274;9.542;2023-04-01T01:01:56;2.50;;;1.23;;
16352;SDS011;8286;51.274;9.542;2023-04-01T01:04:23;1.77;;;1.10;;
16352;SDS011;8286;51.274;9.542;2023-04-01T01:06:52;3.67;;;1.77;;
16352;SDS011;8286;51.274;9.542;2023-04-01T01:09:38;3.27;;;1.17;;
16352;SDS011;8286;51.274;9.542;2023-04-01T01:12:08;7.43;;;1.47;;
16352;SDS011;8286;51.274;9.542;2023-04-01T01:14:41;2.93;;;1.43;;
16352;SDS011;8286;51.274;9.542;2023-04-01T01:17:13;3.93;;;1.53;;
16352;SDS011;8286;51.274;9.542;2023-04-01T01:19:52;5.57;;;1.87;;
16352;SDS011;8286;51.274;9.542;2023-04-01T01:22:28;2.73;;;1.40;;
16352;SDS011;8286;51.274;9.542;2023-04-01T01:27:56;2.27;;;1.50;;
16352;SDS011;8286;51.274;9.542;2023-04-01T01:30:35;4.53;;;1.67;;
16352;SDS011;8286;51.274;9.542;2023-04-01T01:33:13;3.47;;;1.50;;
16352;SDS011;8286;51.274;9.542;2023-04-01T01:35:52;3.70;;;1.27;;
16352;SDS011;8286;51.274;9.542;2023-04-01T01:38:21;2.83;;;1.40;;
16352;SDS011;8286;51.274;9.542;2023-04-01T01:40:49;2.30;;;2.10;;
16352;SDS011;8286;51.274;9.542;2023-04-01T01:43:19;8.00;;;1.70;;
16352;SDS011;8286;51.274;9.542;2023-04-01T01:45:48;3.60;;;2.10;;
16352;SDS011;8286;51.274;9.542;2023-04-01T01:48:17;3.07;;;1.40;;
16352;SDS011;8286;51.274;9.542;2023-04-01T01:50:44;4.77;;;1.83;;
16352;SDS011;8286;51.274;9.542;2023-04-01T01:53:13;7.33;;;1.70;;
16352;SDS011;8286;51.274;9.542;2023-04-01T01:55:40;3.67;;;1.13;;
16352;SDS011;8286;51.274;9.542;2023-04-01T01:58:10;3.43;;;1.20;;
16352;SDS011;8286;51.274;9.542;2023-04-01T02:00:38;3.90;;;2.00;;
16352;SDS011;8286;51.274;9.542;2023-04-01T02:03:05;4.37;;;1.60;;
16352;SDS011;8286;51.274;9.542;2023-04-01T02:05:32;3.83;;;2.40;;
16352;SDS011;8286;51.274;9.542;2023-04-01T02:08:00;3.47;;;1.53;;
16352;SDS011;8286;51.274;9.542;2023-04-01T02:10:31;2.17;;;1.50;;
16352;SDS011;8286;51.274;9.542;2023-04-01T02:12:59;4.77;;;1.53;;
16352;SDS011;8286;51.274;9.542;2023-04-01T02:15:28;6.17;;;1.50;;
16352;SDS011;8286;51.274;9.542;2023-04-01T02:17:58;1.57;;;1.33;;
16352;SDS011;8286;51.274;9.542;2023-04-01T02:20:24;2.67;;;2.10;;
16352;SDS011;8286;51.274;9.542;2023-04-01T02:22:52;3.97;;;1.33;;
16352;SDS011;8286;51.274;9.542;2023-04-01T02:25:20;2.97;;;1.50;;
16352;SDS011;8286;51.274;9.542;2023-04-01T02:27:51;3.57;;;1.93;;
16352;SDS011;8286;51.274;9.542;2023-04-01T02:30:18;5.13;;;1.40;;
16352;SDS011;8286;51.274;9.542;2023-04-01T02:32:45;1.97;;;1.50;;
16352;SDS011;8286;51.274;9.542;2023-04-01T02:35:13;4.03;;;2.07;;
16352;SDS011;8286;51.274;9.542;2023-04-01T02:37:41;4.27;;;1.63;;
16352;SDS011;8286;51.274;9.542;2023-04-01T02:40:10;4.40;;;1.60;;
16352;SDS011;8286;51.274;9.542;2023-04-01T02:42:38;3.10;;;1.40;;
16352;SDS011;8286;51.274;9.542;2023-04-01T02:45:06;2.93;;;1.37;;
16352;SDS011;8286;51.274;9.542;2023-04-01T02:47:34;2.77;;;1.70;;
16352;SDS011;8286;51.274;9.542;2023-04-01T02:50:00;6.07;;;1.73;;
16352;SDS011;8286;51.274;9.542;2023-04-01T02:52:27;4.07;;;1.20;;
16352;SDS011;8286;51.274;9.542;2023-04-01T02:54:55;2.87;;;1.10;;
16352;SDS011;8286;51.274;9.542;2023-04-01T02:57:22;4.97;;;1.97;;
16352;SDS011;8286;51.274;9.542;2023-04-01T02:59:48;4.43;;;1.20;;
16352;SDS011;8286;51.274;9.542;2023-04-01T03:02:16;5.87;;;1.30;;
16352;SDS011;8286;51.274;9.542;2023-04-01T03:04:43;3.97;;;1.83;;
16352;SDS011;8286;51.274;9.542;2023-04-01T03:07:10;6.43;;;1.60;;
16352;SDS011;8286;51.274;9.542;2023-04-01T03:09:37;5.20;;;1.60;;
16352;SDS011;8286;51.274;9.542;2023-04-01T03:12:04;3.60;;;1.10;;
16352;SDS011;8286;51.274;9.542;2023-04-01T03:14:31;3.27;;;1.20;;
16352;SDS011;8286;51.274;9.542;2023-04-01T03:16:58;2.23;;;1.20;;
16352;SDS011;8286;51.274;9.542;2023-04-01T03:19:26;0.80;;;0.80;;
16352;SDS011;8286;51.274;9.542;2023-04-01T03:21:53;1.93;;;1.00;;
16352;SDS011;8286;51.274;9.542;2023-04-01T03:24:20;3.00;;;1.10;;
16352;SDS011;8286;51.274;9.542;2023-04-01T03:26:47;1.67;;;1.10;;
16352;SDS011;8286;51.274;9.542;2023-04-01T03:29:13;3.13;;;1.20;;
16352;SDS011;8286;51.274;9.542;2023-04-01T03:31:40;1.37;;;0.90;;
16352;SDS011;8286;51.274;9.542;2023-04-01T03:34:07;1.20;;;0.90;;
16352;SDS011;8286;51.274;9.542;2023-04-01T03:36:36;4.80;;;1.13;;
16352;SDS011;8286;51.274;9.542;2023-04-01T03:40:46;3.37;;;1.20;;
16352;SDS011;8286;51.274;9.542;2023-04-01T03:43:12;2.17;;;1.00;;
16352;SDS011;8286;51.274;9.542;2023-04-01T03:45:43;1.83;;;1.10;;
16352;SDS011;8286;51.274;9.542;2023-04-01T03:48:10;5.60;;;2.00;;
16352;SDS011;8286;51.274;9.542;2023-04-01T03:50:36;3.03;;;0.97;;
16352;SDS011;8286;51.274;9.542;2023-04-01T03:53:03;2.03;;;0.97;;
16352;SDS011;8286;51.274;9.542;2023-04-01T03:55:29;1.90;;;1.10;;
16352;SDS011;8286;51.274;9.542;2023-04-01T03:57:58;2.77;;;1.30;;
16352;SDS011;8286;51.274;9.542;2023-04-01T04:00:24;3.03;;;1.10;;
16352;SDS011;8286;51.274;9.542;2023-04-01T04:02:51;1.53;;;0.87;;
16352;SDS011;8286;51.274;9.542;2023-04-01T04:05:17;3.70;;;1.20;;
16352;SDS011;8286;51.274;9.542;2023-04-01T04:07:44;4.53;;;0.90;;
16352;SDS011;8286;51.274;9.542;2023-04-01T04:10:10;2.47;;;1.00;;
16352;SDS011;8286;51.274;9.542;2023-04-01T04:12:37;4.33;;;1.20;;
16352;SDS011;8286;51.274;9.542;2023-04-01T04:15:07;0.90;;;0.90;;
16352;SDS011;8286;51.274;9.542;2023-04-01T04:17:34;3.20;;;1.10;;
16352;SDS011;8286;51.274;9.542;2023-04-01T04:20:00;3.33;;;1.10;;
16352;SDS011;8286;51.274;9.542;2023-04-01T04:22:27;1.63;;;1.30;;
16352;SDS011;8286;51.274;9.542;2023-04-01T04:24:54;2.30;;;1.20;;
16352;SDS011;8286;51.274;9.542;2023-04-01T04:27:20;2.03;;;1.10;;
16352;SDS011;8286;51.274;9.542;2023-04-01T04:29:47;4.47;;;1.17;;
16352;SDS011;8286;51.274;9.542;2023-04-01T04:32:15;1.90;;;1.00;;
16352;SDS011;8286;51.274;9.542;2023-04-01T04:34:41;2.20;;;1.20;;
16352;SDS011;8286;51.274;9.542;2023-04-01T04:37:08;1.03;;;0.70;;
16352;SDS011;8286;51.274;9.542;2023-04-01T04:39:34;1.70;;;1.13;;
16352;SDS011;8286;51.274;9.542;2023-04-01T04:42:01;0.80;;;0.80;;
16352;SDS011;8286;51.274;9.542;2023-04-01T04:44:27;3.63;;;1.10;;
16352;SDS011;8286;51.274;9.542;2023-04-01T04:46:54;1.40;;;0.83;;
16352;SDS011;8286;51.274;9.542;2023-04-01T04:49:22;3.10;;;0.93;;
16352;SDS011;8286;51.274;9.542;2023-04-01T04:51:48;3.30;;;1.00;;
16352;SDS011;8286;51.274;9.542;2023-04-01T04:54:15;2.23;;;0.83;;
16352;SDS011;8286;51.274;9.542;2023-04-01T04:56:41;2.80;;;1.07;;
16352;SDS011;8286;51.274;9.542;2023-04-01T04:59:08;1.10;;;1.10;;
16352;SDS011;8286;51.274;9.542;2023-04-01T05:01:34;4.67;;;1.10;;
16352;SDS011;8286;51.274;9.542;2023-04-01T05:04:01;2.00;;;0.73;;
16352;SDS011;8286;51.274;9.542;2023-04-01T05:06:29;1.13;;;0.93;;
16352;SDS011;8286;51.274;9.542;2023-04-01T05:08:56;1.60;;;1.10;;
16352;SDS011;8286;51.274;9.542;2023-04-01T05:11:23;4.43;;;0.90;;
16352;SDS011;8286;51.274;9.542;2023-04-01T05:13:51;3.20;;;1.10;;
16352;SDS011;8286;51.274;9.542;2023-04-01T05:16:18;2.43;;;0.97;;
16352;SDS011;8286;51.274;9.542;2023-04-01T05:18:45;0.80;;;0.80;;
16352;SDS011;8286;51.274;9.542;2023-04-01T05:21:13;1.30;;;0.93;;
16352;SDS011;8286;51.274;9.542;2023-04-01T05:23:41;0.67;;;0.67;;
16352;SDS011;8286;51.274;9.542;2023-04-01T05:26:09;4.60;;;0.77;;
16352;SDS011;8286;51.274;9.542;2023-04-01T05:28:36;0.80;;;0.80;;
16352;SDS011;8286;51.274;9.542;2023-04-01T05:31:03;2.23;;;1.10;;
16352;SDS011;8286;51.274;9.542;2023-04-01T05:33:30;1.30;;;1.20;;
16352;SDS011;8286;51.274;9.542;2023-04-01T05:36:05;2.10;;;1.03;;
16352;SDS011;8286;51.274;9.542;2023-04-01T05:38:32;2.87;;;1.00;;
16352;SDS011;8286;51.274;9.542;2023-04-01T05:41:01;3.57;;;1.13;;
16352;SDS011;8286;51.274;9.542;2023-04-01T05:43:28;1.33;;;0.97;;
16352;SDS011;8286;51.274;9.542;2023-04-01T05:45:55;2.57;;;1.30;;
16352;SDS011;8286;51.274;9.542;2023-04-01T05:48:22;4.10;;;1.10;;
16352;SDS011;8286;51.274;9.542;2023-04-01T05:50:48;2.57;;;0.90;;
16352;SDS011;8286;51.274;9.542;2023-04-01T05:53:15;1.10;;;1.10;;
16352;SDS011;8286;51.274;9.542;2023-04-01T05:55:41;2.37;;;0.80;;
16352;SDS011;8286;51.274;9.542;2023-04-01T05:58:09;3.57;;;1.10;;
16352;SDS011;8286;51.274;9.542;2023-04-01T06:00:36;2.57;;;0.90;;
16352;SDS011;8286;51.274;9.542;2023-04-01T06:03:03;2.00;;;1.50;;
16352;SDS011;8286;51.274;9.542;2023-04-01T06:05:30;3.87;;;1.00;;
16352;SDS011;8286;51.274;9.542;2023-04-01T06:08:00;1.20;;;1.13;;
16352;SDS011;8286;51.274;9.542;2023-04-01T06:10:35;2.07;;;0.87;;
16352;SDS011;8286;51.274;9.542;2023-04-01T06:13:07;0.93;;;0.93;;
16352;SDS011;8286;51.274;9.542;2023-04-01T06:15:39;3.33;;;1.23;;
16352;SDS011;8286;51.274;9.542;2023-04-01T06:21:28;2.37;;;1.10;;
16352;SDS011;8286;51.274;9.542;2023-04-01T06:24:18;2.07;;;1.00;;
16352;SDS011;8286;51.274;9.542;2023-04-01T06:26:53;0.90;;;0.90;;
16352;SDS011;8286;51.274;9.542;2023-04-01T06:29:37;3.10;;;0.80;;
16352;SDS011;8286;51.274;9.542;2023-04-01T06:35:24;1.13;;;0.80;;
16352;SDS011;8286;51.274;9.542;2023-04-01T06:38:01;1.37;;;0.83;;
16352;SDS011;8286;51.274;9.542;2023-04-01T06:40:39;0.70;;;0.70;;
16352;SDS011;8286;51.274;9.542;2023-04-01T06:43:13;2.57;;;1.30;;
16352;SDS011;8286;51.274;9.542;2023-04-01T06:45:48;1.30;;;0.63;;
16352;SDS011;8286;51.274;9.542;2023-04-01T06:48:23;1.43;;;0.90;;
16352;SDS011;8286;51.274;9.542;2023-04-01T06:51:01;2.07;;;0.80;;
16352;SDS011;8286;51.274;9.542;2023-04-01T06:53:37;2.13;;;0.90;;
16352;SDS011;8286;51.274;9.542;2023-04-01T06:56:07;0.70;;;0.70;;
16352;SDS011;8286;51.274;9.542;2023-04-01T06:58:36;2.03;;;0.83;;
16352;SDS011;8286;51.274;9.542;2023-04-01T07:01:06;1.00;;;0.80;;
16352;SDS011;8286;51.274;9.542;2023-04-01T07:03:35;0.80;;;0.80;;
16352;SDS011;8286;51.274;9.542;2023-04-01T07:06:04;0.90;;;0.83;;
16352;SDS011;8286;51.274;9.542;2023-04-01T07:08:33;0.70;;;0.70;;
16352;SDS011;8286;51.274;9.542;2023-04-01T07:11:03;1.33;;;1.23;;
16352;SDS011;8286;51.274;9.542;2023-04-01T07:13:31;2.10;;;1.17;;
16352;SDS011;8286;51.274;9.542;2023-04-01T07:16:07;3.30;;;0.83;;
16352;SDS011;8286;51.274;9.542;2023-04-01T07:18:38;1.97;;;0.70;;
16352;SDS011;8286;51.274;9.542;2023-04-01T07:21:10;1.53;;;0.80;;
16352;SDS011;8286;51.274;9.542;2023-04-01T07:23:48;4.83;;;1.03;;
16352;SDS011;8286;51.274;9.542;2023-04-01T07:26:17;1.67;;;1.57;;
16352;SDS011;8286;51.274;9.542;2023-04-01T07:28:45;0.57;;;0.57;;
16352;SDS011;8286;51.274;9.542;2023-04-01T07:31:18;1.50;;;1.07;;
16352;SDS011;8286;51.274;9.542;2023-04-01T07:33:51;1.23;;;0.90;;
16352;SDS011;8286;51.274;9.542;2023-04-01T07:36:22;1.13;;;0.70;;
16352;SDS011;8286;51.274;9.542;2023-04-01T07:38:56;3.47;;;0.70;;
16352;SDS011;8286;51.274;9.542;2023-04-01T07:41:29;1.63;;;0.70;;
16352;SDS011;8286;51.274;9.542;2023-04-01T07:44:02;4.13;;;0.80;;
16352;SDS011;8286;51.274;9.542;2023-04-01T07:46:42;2.93;;;0.83;;
16352;SDS011;8286;51.274;9.542;2023-04-01T07:49:16;0.70;;;0.70;;
16352;SDS011;8286;51.274;9.542;2023-04-01T07:51:46;2.27;;;0.90;;
16352;SDS011;8286;51.274;9.542;2023-04-01T07:54:17;0.80;;;0.77;;
16352;SDS011;8286;51.274;9.542;2023-04-01T07:56:49;0.60;;;0.60;;
16352;SDS011;8286;51.274;9.542;2023-04-01T07:59:19;0.80;;;0.70;;
16352;SDS011;8286;51.274;9.542;2023-04-01T08:01:54;1.00;;;0.80;;
16352;SDS011;8286;51.274;9.542;2023-04-01T08:04:27;2.07;;;0.83;;
16352;SDS011;8286;51.274;9.542;2023-04-01T08:07:03;1.17;;;0.60;;
16352;SDS011;8286;51.274;9.542;2023-04-01T08:09:34;1.83;;;1.03;;
16352;SDS011;8286;51.274;9.542;2023-04-01T08:12:10;0.90;;;0.73;;
16352;SDS011;8286;51.274;9.542;2023-04-01T08:14:46;0.87;;;0.63;;
16352;SDS011;8286;51.274;9.542;2023-04-01T08:17:26;1.90;;;0.80;;
16352;SDS011;8286;51.274;9.542;2023-04-01T09:52:20;23.77;;;8.33;;
16352;SDS011;8286;51.274;9.542;2023-04-01T09:54:58;0.80;;;0.80;;
16352;SDS011;8286;51.274;9.542;2023-04-01T09:57:48;1.03;;;0.70;;
16352;SDS011;8286;51.274;9.542;2023-04-01T10:00:49;0.70;;;0.63;;
16352;SDS011;8286;51.274;9.542;2023-04-01T10:03:31;1.10;;;0.70;;
16352;SDS011;8286;51.274;9.542;2023-04-01T10:06:36;0.83;;;0.60;;
16352;SDS011;8286;51.274;9.542;2023-04-01T10:18:11;0.70;;;0.70;;
16352;SDS011;8286;51.274;9.542;2023-04-01T10:21:14;0.87;;;0.60;;
16352;SDS011;8286;51.274;9.542;2023-04-01T10:23:54;2.43;;;0.70;;
16352;SDS011;8286;51.274;9.542;2023-04-01T10:26:32;6.80;;;0.93;;
16352;SDS011;8286;51.274;9.542;2023-04-01T10:29:16;14.73;;;6.33;;
16352;SDS011;8286;51.274;9.542;2023-04-01T10:32:07;700.27;;;453.47;;
16352;SDS011;8286;51.274;9.542;2023-04-01T10:35:09;95.63;;;62.60;;
16352;SDS011;8286;51.274;9.542;2023-04-01T10:37:55;78.23;;;58.07;;
16352;SDS011;8286;51.274;9.542;2023-04-01T10:40:53;13.57;;;10.43;;
16352;SDS011;8286;51.274;9.542;2023-04-01T10:43:46;5.10;;;3.23;;
16352;SDS011;8286;51.274;9.542;2023-04-01T10:49:35;84.33;;;68.07;;
16352;SDS011;8286;51.274;9.542;2023-04-01T10:52:46;1.77;;;1.67;;
16352;SDS011;8286;51.274;9.542;2023-04-01T10:55:36;18.23;;;13.43;;
16352;SDS011;8286;51.274;9.542;2023-04-01T10:58:23;1.90;;;1.80;;
16352;SDS011;8286;51.274;9.542;2023-04-01T11:01:45;3.00;;;1.83;;
16352;SDS011;8286;51.274;9.542;2023-04-01T11:04:44;4.73;;;3.63;;
16352;SDS011;8286;51.274;9.542;2023-04-01T11:07:52;2.73;;;1.47;;
16352;SDS011;8286;51.274;9.542;2023-04-01T11:17:08;45.87;;;22.40;;
16352;SDS011;8286;51.274;9.542;2023-04-01T11:19:48;26.30;;;16.53;;
16352;SDS011;8286;51.274;9.542;2023-04-01T11:25:22;109.83;;;56.03;;
16352;SDS011;8286;51.274;9.542;2023-04-01T11:30:47;713.23;;;434.20;;
16352;SDS011;8286;51.274;9.542;2023-04-01T11:33:20;1225.93;;;676.60;;
16352;SDS011;8286;51.274;9.542;2023-04-01T11:41:26;650.77;;;410.70;;
16352;SDS011;8286;51.274;9.542;2023-04-01T11:44:04;60.57;;;37.07;;
16352;SDS011;8286;51.274;9.542;2023-04-01T11:46:42;59.70;;;32.93;;
16352;SDS011;8286;51.274;9.542;2023-04-01T11:49:20;49.97;;;26.77;;
16352;SDS011;8286;51.274;9.542;2023-04-01T11:52:02;52.10;;;27.23;;
16352;SDS011;8286;51.274;9.542;2023-04-01T11:54:37;96.83;;;49.80;;
16352;SDS011;8286;51.274;9.542;2023-04-01T11:57:15;52.57;;;26.37;;
16352;SDS011;8286;51.274;9.542;2023-04-01T11:59:58;35.27;;;16.93;;
16352;SDS011;8286;51.274;9.542;2023-04-01T12:02:33;18.43;;;7.70;;
16352;SDS011;8286;51.274;9.542;2023-04-01T12:05:15;10.07;;;3.37;;
16352;SDS011;8286;51.274;9.542;2023-04-01T12:07:55;14.03;;;3.67;;
16352;SDS011;8286;51.274;9.542;2023-04-01T12:10:29;4.13;;;3.17;;
16352;SDS011;8286;51.274;9.542;2023-04-01T12:13:02;2.67;;;2.47;;
16352;SDS011;8286;51.274;9.542;2023-04-01T12:15:34;1.33;;;1.33;;
16352;SDS011;8286;51.274;9.542;2023-04-01T12:18:09;1.37;;;1.27;;
16352;SDS011;8286;51.274;9.542;2023-04-01T12:20:43;1.97;;;1.00;;
16352;SDS011;8286;51.274;9.542;2023-04-01T12:23:19;1.63;;;0.90;;
16352;SDS011;8286;51.274;9.542;2023-04-01T12:26:08;2.67;;;1.77;;
16352;SDS011;8286;51.274;9.542;2023-04-01T12:28:45;2.53;;;1.33;;
16352;SDS011;8286;51.274;9.542;2023-04-01T12:31:24;1.37;;;1.27;;
16352;SDS011;8286;51.274;9.542;2023-04-01T12:34:05;0.77;;;0.70;;
16352;SDS011;8286;51.274;9.542;2023-04-01T12:36:45;3.20;;;1.80;;
16352;SDS011;8286;51.274;9.542;2023-04-01T12:39:22;1.87;;;1.77;;
16352;SDS011;8286;51.274;9.542;2023-04-01T12:42:00;1.23;;;0.90;;
16352;SDS011;8286;51.274;9.542;2023-04-01T12:44:46;0.90;;;0.90;;
16352;SDS011;8286;51.274;9.542;2023-04-01T12:47:33;0.53;;;0.53;;
16352;SDS011;8286;51.274;9.542;2023-04-01T12:50:18;0.70;;;0.70;;
16352;SDS011;8286;51.274;9.542;2023-04-01T12:53:11;0.83;;;0.60;;
16352;SDS011;8286;51.274;9.542;2023-04-01T12:55:46;1.90;;;0.73;;
16352;SDS011;8286;51.274;9.542;2023-04-01T12:58:20;0.60;;;0.60;;
16352;SDS011;8286;51.274;9.542;2023-04-01T13:01:19;0.50;;;0.50;;
16352;SDS011;8286;51.274;9.542;2023-04-01T13:04:04;0.70;;;0.70;;
16352;SDS011;8286;51.274;9.542;2023-04-01T13:06:54;0.40;;;0.40;;
16352;SDS011;8286;51.274;9.542;2023-04-01T13:09:31;0.60;;;0.60;;
16352;SDS011;8286;51.274;9.542;2023-04-01T13:12:10;0.70;;;0.70;;
16352;SDS011;8286;51.274;9.542;2023-04-01T13:17:47;0.70;;;0.70;;
16352;SDS011;8286;51.274;9.542;2023-04-01T13:20:20;0.50;;;0.50;;
16352;SDS011;8286;51.274;9.542;2023-04-01T13:22:59;0.60;;;0.60;;
16352;SDS011;8286;51.274;9.542;2023-04-01T13:25:33;0.50;;;0.50;;
16352;SDS011;8286;51.274;9.542;2023-04-01T13:28:05;0.73;;;0.73;;
16352;SDS011;8286;51.274;9.542;2023-04-01T13:30:37;0.83;;;0.80;;
16352;SDS011;8286;51.274;9.542;2023-04-01T13:33:11;0.60;;;0.60;;
16352;SDS011;8286;51.274;9.542;2023-04-01T13:35:43;0.60;;;0.60;;
16352;SDS011;8286;51.274;9.542;2023-04-01T13:38:18;0.80;;;0.80;;
16352;SDS011;8286;51.274;9.542;2023-04-01T13:40:58;1.50;;;0.70;;
16352;SDS011;8286;51.274;9.542;2023-04-01T13:43:28;0.87;;;0.87;;
16352;SDS011;8286;51.274;9.542;2023-04-01T13:46:22;0.50;;;0.50;;
16352;SDS011;8286;51.274;9.542;2023-04-01T13:48:58;1.00;;;0.47;;
16352;SDS011;8286;51.274;9.542;2023-04-01T13:51:40;3.50;;;0.60;;
16352;SDS011;8286;51.274;9.542;2023-04-01T13:57:23;0.60;;;0.60;;
16352;SDS011;8286;51.274;9.542;2023-04-01T14:06:23;1.00;;;0.60;;
16352;SDS011;8286;51.274;9.542;2023-04-01T14:09:08;0.77;;;0.77;;
16352;SDS011;8286;51.274;9.542;2023-04-01T14:11:47;2.27;;;0.77;;
16352;SDS011;8286;51.274;9.542;2023-04-01T14:14:19;0.70;;;0.70;;
16352;SDS011;8286;51.274;9.542;2023-04-01T14:17:01;1.30;;;1.10;;
16352;SDS011;8286;51.274;9.542;2023-04-01T14:19:40;0.80;;;0.80;;
16352;SDS011;8286;51.274;9.542;2023-04-01T14:22:19;1.03;;;0.93;;
16352;SDS011;8286;51.274;9.542;2023-04-01T14:24:56;3.40;;;1.40;;
16352;SDS011;8286;51.274;9.542;2023-04-01T14:27:34;1.20;;;1.10;;
16352;SDS011;8286;51.274;9.542;2023-04-01T14:32:58;0.73;;;0.73;;
16352;SDS011;8286;51.274;9.542;2023-04-01T14:35:31;1.03;;;0.70;;
16352;SDS011;8286;51.274;9.542;2023-04-01T14:38:04;1.37;;;1.03;;
16352;SDS011;8286;51.274;9.542;2023-04-01T14:40:56;0.80;;;0.80;;
16352;SDS011;8286;51.274;9.542;2023-04-01T14:43:36;4.67;;;3.13;;
16352;SDS011;8286;51.274;9.542;2023-04-01T14:46:28;2.00;;;1.80;;
16352;SDS011;8286;51.274;9.542;2023-04-01T14:49:15;1.40;;;1.30;;
16352;SDS011;8286;51.274;9.542;2023-04-01T14:51:45;4.30;;;2.27;;
16352;SDS011;8286;51.274;9.542;2023-04-01T14:54:13;1.27;;;1.17;;
16352;SDS011;8286;51.274;9.542;2023-04-01T14:56:47;1.43;;;1.00;;
16352;SDS011;8286;51.274;9.542;2023-04-01T14:59:17;0.90;;;0.90;;
16352;SDS011;8286;51.274;9.542;2023-04-01T15:01:55;0.80;;;0.80;;
16352;SDS011;8286;51.274;9.542;2023-04-01T15:04:28;0.60;;;0.60;;
16352;SDS011;8286;51.274;9.542;2023-04-01T15:10:27;0.83;;;0.83;;
16352;SDS011;8286;51.274;9.542;2023-04-01T15:13:04;1.10;;;1.10;;
16352;SDS011;8286;51.274;9.542;2023-04-01T15:15:47;0.90;;;0.90;;
16352;SDS011;8286;51.274;9.542;2023-04-01T15:18:21;0.63;;;0.63;;
16352;SDS011;8286;51.274;9.542;2023-04-01T15:20:56;0.80;;;0.70;;
16352;SDS011;8286;51.274;9.542;2023-04-01T15:23:34;0.80;;;0.80;;
16352;SDS011;8286;51.274;9.542;2023-04-01T15:26:11;0.70;;;0.70;;
16352;SDS011;8286;51.274;9.542;2023-04-01T15:28:42;0.70;;;0.70;;
16352;SDS011;8286;51.274;9.542;2023-04-01T15:31:15;0.80;;;0.80;;
16352;SDS011;8286;51.274;9.542;2023-04-01T15:33:45;0.90;;;0.90;;
16352;SDS011;8286;51.274;9.542;2023-04-01T15:36:22;2.70;;;2.10;;
16352;SDS011;8286;51.274;9.542;2023-04-01T15:38:57;1.50;;;1.40;;
16352;SDS011;8286;51.274;9.542;2023-04-01T15:41:28;1.03;;;1.00;;
16352;SDS011;8286;51.274;9.542;2023-04-01T15:44:02;1.50;;;1.33;;
16352;SDS011;8286;51.274;9.542;2023-04-01T15:49:20;1.20;;;1.20;;
16352;SDS011;8286;51.274;9.542;2023-04-01T15:51:54;1.50;;;1.40;;
16352;SDS011;8286;51.274;9.542;2023-04-01T15:54:36;2.17;;;1.50;;
16352;SDS011;8286;51.274;9.542;2023-04-01T15:57:15;3.23;;;2.73;;
16352;SDS011;8286;51.274;9.542;2023-04-01T15:59:54;1.97;;;1.73;;
16352;SDS011;8286;51.274;9.542;2023-04-01T16:02:31;2.30;;;1.60;;
16352;SDS011;8286;51.274;9.542;2023-04-01T16:05:01;2.57;;;1.80;;
16352;SDS011;8286;51.274;9.542;2023-04-01T16:07:37;1.60;;;1.50;;
16352;SDS011;8286;51.274;9.542;2023-04-01T16:10:29;7.37;;;1.70;;
16352;SDS011;8286;51.274;9.542;2023-04-01T16:13:06;1.70;;;1.60;;
16352;SDS011;8286;51.274;9.542;2023-04-01T16:15:46;1.93;;;1.23;;
16352;SDS011;8286;51.274;9.542;2023-04-01T16:21:10;1.40;;;1.30;;
16352;SDS011;8286;51.274;9.542;2023-04-01T16:23:40;1.60;;;1.50;;
16352;SDS011;8286;51.274;9.542;2023-04-01T16:26:15;5.30;;;1.60;;
16352;SDS011;8286;51.274;9.542;2023-04-01T16:28:48;1.57;;;1.47;;
16352;SDS011;8286;51.274;9.542;2023-04-01T16:31:25;2.43;;;1.80;;
16352;SDS011;8286;51.274;9.542;2023-04-01T16:33:59;1.63;;;1.53;;
16352;SDS011;8286;51.274;9.542;2023-04-01T16:36:30;1.80;;;1.57;;
16352;SDS011;8286;51.274;9.542;2023-04-01T16:39:26;1.53;;;1.30;;
16352;SDS011;8286;51.274;9.542;2023-04-01T16:41:59;1.80;;;1.70;;
16352;SDS011;8286;51.274;9.542;2023-04-01T16:44:44;3.33;;;1.67;;
16352;SDS011;8286;51.274;9.542;2023-04-01T16:47:15;3.67;;;1.57;;
16352;SDS011;8286;51.274;9.542;2023-04-01T16:49:46;1.30;;;1.30;;
16352;SDS011;8286;51.274;9.542;2023-04-01T16:52:21;1.90;;;1.80;;
16352;SDS011;8286;51.274;9.542;2023-04-01T16:54:58;1.90;;;1.80;;
16352;SDS011;8286;51.274;9.542;2023-04-01T16:57:26;2.87;;;1.93;;
16352;SDS011;8286;51.274;9.542;2023-04-01T16:59:55;1.80;;;1.70;;
16352;SDS011;8286;51.274;9.542;2023-04-01T17:02:26;1.97;;;1.87;;
16352;SDS011;8286;51.274;9.542;2023-04-01T17:04:59;2.33;;;1.60;;
16352;SDS011;8286;51.274;9.542;2023-04-01T17:07:30;3.47;;;2.00;;
16352;SDS011;8286;51.274;9.542;2023-04-01T17:10:18;5.43;;;2.13;;
16352;SDS011;8286;51.274;9.542;2023-04-01T17:12:54;1.70;;;1.60;;
16352;SDS011;8286;51.274;9.542;2023-04-01T17:15:27;4.70;;;2.00;;
16352;SDS011;8286;51.274;9.542;2023-04-01T17:18:01;1.53;;;1.40;;
16352;SDS011;8286;51.274;9.542;2023-04-01T17:20:35;2.00;;;1.77;;
16352;SDS011;8286;51.274;9.542;2023-04-01T17:23:09;4.40;;;1.80;;
16352;SDS011;8286;51.274;9.542;2023-04-01T17:25:48;2.40;;;1.23;;
16352;SDS011;8286;51.274;9.542;2023-04-01T17:28:23;1.40;;;1.30;;
16352;SDS011;8286;51.274;9.542;2023-04-01T17:30:56;2.10;;;1.57;;
16352;SDS011;8286;51.274;9.542;2023-04-01T17:33:36;1.93;;;1.77;;
16352;SDS011;8286;51.274;9.542;2023-04-01T17:36:14;2.07;;;1.70;;
16352;SDS011;8286;51.274;9.542;2023-04-01T17:38:51;2.33;;;1.60;;
16352;SDS011;8286;51.274;9.542;2023-04-01T17:41:26;2.10;;;1.50;;
16352;SDS011;8286;51.274;9.542;2023-04-01T17:43:58;7.87;;;4.43;;
16352;SDS011;8286;51.274;9.542;2023-04-01T17:46:31;9.27;;;5.40;;
16352;SDS011;8286;51.274;9.542;2023-04-01T17:49:19;3.53;;;2.97;;
16352;SDS011;8286;51.274;9.542;2023-04-01T17:51:53;5.23;;;3.10;;
16352;SDS011;8286;51.274;9.542;2023-04-01T17:54:25;4.17;;;3.10;;
16352;SDS011;8286;51.274;9.542;2023-04-01T17:56:59;3.37;;;2.63;;
16352;SDS011;8286;51.274;9.542;2023-04-01T17:59:35;6.13;;;3.37;;
16352;SDS011;8286;51.274;9.542;2023-04-01T18:02:04;9.80;;;5.37;;
16352;SDS011;8286;51.274;9.542;2023-04-01T18:04:46;9.23;;;5.50;;
16352;SDS011;8286;51.274;9.542;2023-04-01T18:07:25;9.70;;;4.97;;
16352;SDS011;8286;51.274;9.542;2023-04-01T18:10:21;6.40;;;4.97;;
16352;SDS011;8286;51.274;9.542;2023-04-01T18:13:05;9.70;;;5.70;;
16352;SDS011;8286;51.274;9.542;2023-04-01T18:15:43;6.20;;;4.90;;
16352;SDS011;8286;51.274;9.542;2023-04-01T18:18:17;8.07;;;5.90;;